Big Bear Station Historical Data
Daily Summary for January 19, 2017 Units:  English    Metric   Both
« Previous Day
Next Day »
Daily Weekly Monthly Yearly Custom
  High: Low: Average:
Temperature: 33.8 °F 28.8 °F 30.8 °F
Dew Point: 32.2 °F 26.1 °F 29.1 °F
Humidity: 98 % 81 % 94 %
Wind Speed: 7.8 mph 0.0 mph 0.7 mph
Wind Gust: -999.0 mph - -
Wind:- - SW
Pressure: 23.35 in 23.20 in -
Precipitation: 0.01 in    
Historical Graphs
 
 
Tabular Data for January 19, 2017
Time Temperature Dew Point Pressure Wind Wind Speed Wind Gust Humidity Rainfall Rate (Hourly)
00:05 30.7 °F 29.9 °F 23.35 in NE 3.7 mph -999.0 mph 97 % 0 in
00:20 31.1 °F 30.3 °F 23.35 in West 2.2 mph -999.0 mph 97 % 0 in
00:36 31.1 °F 30.3 °F 23.35 in WNW 1.7 mph -999.0 mph 97 % 0 in
00:51 31.1 °F 30.6 °F 23.34 in WSW 1.1 mph -999.0 mph 98 % 0 in
01:06 31.3 °F 30.8 °F 23.33 in NW 1.1 mph -999.0 mph 98 % 0 in
01:21 31.5 °F 31.0 °F 23.32 in SSE 4.7 mph -999.0 mph 98 % 0 in
01:37 32.4 °F 31.9 °F 23.32 in NW 5.8 mph -999.0 mph 98 % 0 in
01:53 32.7 °F 32.2 °F 23.35 in West 1.7 mph -999.0 mph 98 % 0 in
02:10 32.7 °F 32.2 °F 23.34 in WNW 2.2 mph -999.0 mph 98 % 0 in
02:26 32.7 °F 32.2 °F 23.35 in South 4.7 mph -999.0 mph 98 % 0 in
02:41 32.5 °F 32.0 °F 23.34 in West 2.2 mph -999.0 mph 98 % 0 in
02:57 31.8 °F 31.3 °F 23.34 in NNW 7.8 mph -999.0 mph 98 % 0 in
03:13 31.5 °F 31.0 °F 23.33 in SSE 4.2 mph -999.0 mph 98 % 0 in
03:28 30.7 °F 29.9 °F 23.32 in South 1.7 mph -999.0 mph 97 % 0 in
03:44 30.0 °F 29.3 °F 23.32 in West 2.7 mph -999.0 mph 97 % 0 in
03:59 29.5 °F 28.5 °F 23.30 in SW 2.7 mph -999.0 mph 96 % 0 in
04:14 29.1 °F 28.1 °F 23.30 in SSW 1.1 mph -999.0 mph 96 % 0 in
04:30 29.1 °F 28.1 °F 23.30 in South 2.2 mph -999.0 mph 96 % 0 in
04:45 29.1 °F 28.1 °F 23.30 in NNW 2.2 mph -999.0 mph 96 % 0 in
05:00 29.1 °F 28.1 °F 23.28 in NNE 1.1 mph -999.0 mph 96 % 0 in
05:15 29.3 °F 28.6 °F 23.27 in North 1.1 mph -999.0 mph 97 % 0 in
05:30 29.5 °F 28.8 °F 23.27 in SW 2.2 mph -999.0 mph 97 % 0 in
05:46 29.7 °F 29.0 °F 23.28 in South 3.2 mph -999.0 mph 97 % 0 in
06:01 29.7 °F 29.0 °F 23.28 in Calm   -999.0 mph 97 % 0 in
06:16 29.7 °F 29.0 °F 23.29 in Calm   -999.0 mph 97 % 0 in
06:31 29.7 °F 29.0 °F 23.27 in Calm   -999.0 mph 97 % 0 in
06:46 29.7 °F 29.0 °F 23.27 in Calm   -999.0 mph 97 % 0 in
07:02 30.0 °F 29.5 °F 23.27 in Calm   -999.0 mph 98 % 0 in
07:17 30.2 °F 29.7 °F 23.27 in Calm   -999.0 mph 98 % 0 in
07:32 30.6 °F 29.9 °F 23.27 in Calm   -999.0 mph 97 % 0 in
07:48 30.7 °F 29.9 °F 23.27 in Calm   -999.0 mph 97 % 0 in
08:03 31.5 °F 30.7 °F 23.27 in Calm   -999.0 mph 97 % 0 in
08:18 32.2 °F 31.2 °F 23.27 in Calm   -999.0 mph 96 % 0 in
08:33 32.7 °F 31.4 °F 23.26 in Calm   -999.0 mph 95 % 0 in
08:49 33.3 °F 31.8 °F 23.26 in Calm   -999.0 mph 94 % 0 in
09:04 33.8 °F 31.7 °F 23.27 in Calm   -999.0 mph 92 % 0 in
09:19 33.1 °F 31.6 °F 23.26 in Calm   -999.0 mph 94 % 0 in
09:34 33.1 °F 31.6 °F 23.27 in Calm   -999.0 mph 94 % 0 in
09:49 33.6 °F 30.1 °F 23.28 in Calm   -999.0 mph 87 % 0 in
10:05 32.7 °F 28.7 °F 23.29 in Calm   -999.0 mph 85 % 0 in
10:20 32.5 °F 28.5 °F 23.30 in Calm   -999.0 mph 85 % 0 in
10:35 31.5 °F 28.1 °F 23.29 in Calm   -999.0 mph 87 % 0 in
10:50 31.6 °F 27.6 °F 23.29 in Calm   -999.0 mph 85 % 0 in
11:06 32.7 °F 28.7 °F 23.28 in Calm   -999.0 mph 85 % 0 in
11:21 33.4 °F 28.5 °F 23.27 in Calm   -999.0 mph 82 % 0 in
11:36 32.9 °F 28.3 °F 23.28 in Calm   -999.0 mph 83 % 0 in
11:51 33.4 °F 28.2 °F 23.27 in Calm   -999.0 mph 81 % 0 in
12:06 33.1 °F 27.9 °F 23.26 in Calm   -999.0 mph 81 % 0 in
12:22 31.3 °F 26.1 °F 23.25 in Calm   -999.0 mph 81 % 0 in
12:37 31.8 °F 26.9 °F 23.25 in Calm   -999.0 mph 82 % 0 in
12:52 33.3 °F 28.7 °F 23.25 in Calm   -999.0 mph 83 % 0 in
13:07 32.2 °F 27.6 °F 23.25 in Calm   -999.0 mph 83 % 0 in
13:22 32.0 °F 27.7 °F 23.25 in Calm   -999.0 mph 84 % 0 in
13:38 31.6 °F 27.9 °F 23.25 in Calm   -999.0 mph 86 % 0 in
13:53 32.5 °F 28.5 °F 23.25 in Calm   -999.0 mph 85 % 0 in
14:09 31.5 °F 27.5 °F 23.25 in Calm   -999.0 mph 85 % 0 in
14:39 30.9 °F 28.0 °F 23.24 in Calm   -999.0 mph 89 % 0 in
14:54 30.9 °F 28.0 °F 23.24 in Calm   -999.0 mph 89 % 0 in
15:09 30.7 °F 28.4 °F 23.24 in Calm   -999.0 mph 91 % 0 in
15:25 30.9 °F 28.6 °F 23.23 in Calm   -999.0 mph 91 % 0 in
15:40 30.9 °F 28.6 °F 23.23 in Calm   -999.0 mph 91 % 0 in
15:55 30.7 °F 28.9 °F 23.23 in Calm   -999.0 mph 93 % 0 in
16:10 30.6 °F 29.1 °F 23.23 in Calm   -999.0 mph 94 % 0 in
16:25 30.6 °F 29.1 °F 23.23 in Calm   -999.0 mph 94 % 0 in
16:41 30.6 °F 29.3 °F 23.23 in Calm   -999.0 mph 95 % 0 in
16:56 30.2 °F 28.9 °F 23.23 in Calm   -999.0 mph 95 % 0 in
17:11 30.0 °F 28.7 °F 23.23 in Calm   -999.0 mph 95 % 0 in
17:26 29.3 °F 28.3 °F 23.23 in Calm   -999.0 mph 96 % 0 in
17:42 29.5 °F 28.5 °F 23.23 in Calm   -999.0 mph 96 % 0 in
17:57 29.7 °F 28.7 °F 23.23 in Calm   -999.0 mph 96 % 0 in
18:12 29.8 °F 29.1 °F 23.23 in Calm   -999.0 mph 97 % 0 in
18:27 29.8 °F 29.1 °F 23.24 in Calm   -999.0 mph 97 % 0 in
18:42 29.7 °F 28.7 °F 23.23 in Calm   -999.0 mph 96 % 0 in
18:58 29.7 °F 28.7 °F 23.24 in Calm   -999.0 mph 96 % 0 in
19:13 29.7 °F 29.0 °F 23.23 in Calm   -999.0 mph 97 % 0 in
19:28 29.7 °F 28.7 °F 23.23 in Calm   -999.0 mph 96 % 0 in
19:44 29.7 °F 28.7 °F 23.23 in Calm   -999.0 mph 96 % 0 in
19:59 29.5 °F 28.5 °F 23.23 in Calm   -999.0 mph 96 % 0 in
20:14 29.5 °F 28.5 °F 23.23 in Calm   -999.0 mph 96 % 0 in
20:29 29.5 °F 28.5 °F 23.23 in Calm   -999.0 mph 96 % 0 in
20:45 29.5 °F 28.5 °F 23.23 in Calm   -999.0 mph 96 % 0 in
21:00 29.5 °F 28.5 °F 23.24 in Calm   -999.0 mph 96 % 0 in
21:15 29.3 °F 28.3 °F 23.24 in Calm   -999.0 mph 96 % 0 in
21:30 29.1 °F 28.1 °F 23.23 in Calm   -999.0 mph 96 % 0 in
21:46 29.1 °F 28.1 °F 23.23 in Calm   -999.0 mph 96 % 0 in
22:01 28.9 °F 27.9 °F 23.23 in Calm   -999.0 mph 96 % 0 in
22:16 28.9 °F 27.9 °F 23.23 in Calm   -999.0 mph 96 % 0 in
22:31 28.9 °F 27.9 °F 23.23 in Calm   -999.0 mph 96 % 0 in
22:47 28.9 °F 27.9 °F 23.23 in Calm   -999.0 mph 96 % 0 in
23:02 28.9 °F 27.6 °F 23.23 in Calm   -999.0 mph 95 % 0 in
23:17 28.9 °F 27.9 °F 23.21 in Calm   -999.0 mph 96 % 0 in
23:33 28.8 °F 27.8 °F 23.20 in Calm   -999.0 mph 96 % 0 in
23:48 28.8 °F 27.8 °F 23.20 in Calm   -999.0 mph 96 % 0 in
Big Bear CA Weather
Compliments of Weather Underground - 1.5 mb